CWLI

Liverpool Bay Airport

Northwest Territories, Canada
METAR CWLI 221800Z AUTO 10012KT ////SM //// OVC010 M05/M05 A2975
Observed Flight Rules
Oct-22 @ 18:00 UTC (an hour ago)
Wind Clouds
100° at 12 knots
  • Overcast at 1,000' AGL
Temperatures Readings
Current -5°C / 23°F
Dewpoint -5°C / 23°F
Humidity 100%
Altimeter 29.75" Hg
Pressure 1007 hPa
Elevation 102
METAR CWLI 221800Z AUTO 10012KT ////SM //// OVC010 M05/M05 A2975
Observed Flight Rules
Oct-22 @ 18:00 UTC
(an hour ago)
Wind
100° at 12 knots
Clouds
  • Overcast at 1,000' AGL
Temperature Dewpoint
-5°C / 23°F -5°C / 23°F
Humidity Altimeter Pressure
100% 29.75" Hg 1007 hPa